Date,TemperatureHighF,TemperatureAvgF,TemperatureLowF,DewpointHighF,DewpointAvgF,DewpointLowF,HumidityHigh,HumidityAvg,HumidityLow,PressureMaxIn,PressureMinIn,WindSpeedMaxMPH,WindSpeedAvgMPH,GustSpeedMaxMPH,PrecipitationSumIn
2013-1-1,50,47,44,46,26,4,87,50,17,31.02,31.02,11,2,11,0.08
2013-1-2,49,44,39,45,35,24,89,73,48,31.02,31.02,8,1,8,0.33
2013-1-3,47,39,27,32,25,15,73,58,36,31.02,31.02,7,0,7,0.00
2013-1-4,54,38,24,23,9,-5,77,39,13,31.02,31.02,8,1,8,0.00
2013-1-5,54,38,26,12,6,-6,42,27,14,31.02,31.02,7,0,7,0.00
2013-1-6,53,43,33,23,17,9,53,36,25,31.02,31.02,5,1,6,0.00
2013-1-7,58,40,29,21,14,4,58,38,14,31.02,31.02,10,1,10,0.00
2013-1-8,59,42,29,25,19,14,61,41,19,31.02,31.02,5,0,5,0.00
2013-1-9,69,50,35,47,27,22,80,45,22,31.02,31.02,8,1,8,0.00
2013-1-10,69,54,45,43,27,17,72,39,17,31.02,31.02,8,1,8,0.00
2013-1-11,52,48,42,47,32,10,91,60,22,31.02,31.02,7,0,8,0.13
2013-1-12,72,58,49,64,48,39,98,76,32,31.02,31.02,5,0,5,0.00
2013-1-13,76,64,55,62,44,32,93,56,22,31.02,31.02,10,2,10,0.00
2013-1-14,68,64,61,54,43,37,74,46,35,31.02,31.02,8,1,8,0.00
2013-1-15,61,46,44,51,41,39,89,82,67,31.02,31.02,11,2,11,0.00
2013-1-16,50,46,43,48,44,40,95,92,89,31.02,31.02,8,0,8,0.17
2013-1-17,51,46,33,50,44,29,98,93,84,31.02,31.02,19,2,19,0.95
2013-1-18,52,36,27,33,20,0,90,58,16,31.02,31.02,10,1,10,0.58
2013-1-19,58,39,24,19,10,-2,61,34,12,31.02,31.02,6,1,8,0.00
2013-1-20,67,49,36,17,11,2,34,24,10,31.02,31.02,10,2,10,0.00
2013-1-21,62,45,28,21,8,-2,55,27,11,31.02,31.02,11,1,11,0.00
2013-1-22,43,33,22,0,-6,-16,19,17,15,31.02,31.02,13,2,13,0.00
2013-1-23,43,28,15,0,-7,-18,41,21,15,31.02,31.02,10,1,10,0.00
2013-1-24,42,32,22,7,-3,-13,31,22,16,31.02,31.02,17,3,17,0.00
2013-1-25,27,24,18,17,-2,-16,65,34,19,31.02,31.02,6,1,6,0.00
2013-1-26,40,30,24,29,19,12,80,65,41,31.02,31.02,6,0,6,0.17
2013-1-27,47,32,21,29,13,6,78,51,23,31.02,31.02,6,0,6,0.00
2013-1-28,51,42,31,34,20,12,54,42,28,31.02,31.02,8,2,8,0.00
2013-1-29,75,59,47,44,37,30,84,48,20,31.02,31.02,9,2,9,0.00
2013-1-30,71,66,61,54,46,40,75,50,34,31.02,31.02,21,6,21,0.42
2013-1-31,63,47,33,51,12,-6,64,27,13,31.02,31.02,15,4,15,0.67